Elco, Illinois
Current Conditions -  °F | °C
As of 4:35 AM on Sunday 26 Oct 2014 (Local Time) from KCIR Reporting Station
Moderate Fog Moderate Fog  
Wind Chill: 59°   Ceiling: 500
Heat Index: 59°   Visibility: 0.5mi
Dew Point: 57°   Wind: 0mph
Humidity: 94%   Direction: NA
Pressure: 30"   Gusts: NA
Location:  37.2537°N, 89.2938°W
Report Text: KCIR 260935Z AUTO 00000KT 1/2SM FG VV005 15/14 A3000 RMK AO2 T01510141
Loading
Personal Weather Stations






























Interactive Weather Map
Tropical Storm Tracking
New forecast layout! Learn more

10-Day Weather Forecast

Advertisements
Track Severe Weather on mobile